sensor_id;sensor_type;location;lat;lon;timestamp;temperature;humidity
58983;DHT22;44771;49.982;8.560;2023-01-20T00:04:14;-2.60;99.90
58983;DHT22;44771;49.982;8.560;2023-01-20T00:09:18;-2.60;99.90
58983;DHT22;44771;49.982;8.560;2023-01-20T00:14:19;-2.70;99.90
58983;DHT22;44771;49.982;8.560;2023-01-20T00:19:22;-2.90;99.90
58983;DHT22;44771;49.982;8.560;2023-01-20T00:24:25;-2.90;99.90
58983;DHT22;44771;49.982;8.560;2023-01-20T00:29:27;-3.00;99.90
58983;DHT22;44771;49.982;8.560;2023-01-20T00:34:29;-3.00;99.90
58983;DHT22;44771;49.982;8.560;2023-01-20T00:39:32;-3.10;99.90
58983;DHT22;44771;49.982;8.560;2023-01-20T00:44:34;-3.10;99.90
58983;DHT22;44771;49.982;8.560;2023-01-20T00:49:35;-3.20;99.90
58983;DHT22;44771;49.982;8.560;2023-01-20T00:54:39;-3.30;99.90
58983;DHT22;44771;49.982;8.560;2023-01-20T00:59:41;-3.40;99.90
58983;DHT22;44771;49.982;8.560;2023-01-20T01:04:42;-3.40;99.90
58983;DHT22;44771;49.982;8.560;2023-01-20T01:09:46;-3.50;99.90
58983;DHT22;44771;49.982;8.560;2023-01-20T01:14:47;-3.40;99.90
58983;DHT22;44771;49.982;8.560;2023-01-20T01:19:51;-3.40;99.90
58983;DHT22;44771;49.982;8.560;2023-01-20T01:24:54;-3.40;99.90
58983;DHT22;44771;49.982;8.560;2023-01-20T01:29:55;-3.50;99.90
58983;DHT22;44771;49.982;8.560;2023-01-20T01:34:57;-3.70;99.90
58983;DHT22;44771;49.982;8.560;2023-01-20T01:40:00;-3.70;99.90
58983;DHT22;44771;49.982;8.560;2023-01-20T01:45:24;-3.80;99.90
58983;DHT22;44771;49.982;8.560;2023-01-20T01:50:30;-3.90;99.90
58983;DHT22;44771;49.982;8.560;2023-01-20T02:06:09;-4.10;99.90
58983;DHT22;44771;49.982;8.560;2023-01-20T02:11:11;-4.10;99.90
58983;DHT22;44771;49.982;8.560;2023-01-20T02:16:18;-4.20;99.90
58983;DHT22;44771;49.982;8.560;2023-01-20T02:27:05;-4.10;99.90
58983;DHT22;44771;49.982;8.560;2023-01-20T02:32:16;-4.20;99.90
58983;DHT22;44771;49.982;8.560;2023-01-20T02:37:24;-4.30;99.90
58983;DHT22;44771;49.982;8.560;2023-01-20T02:42:35;-4.50;99.90
58983;DHT22;44771;49.982;8.560;2023-01-20T02:47:42;-4.50;99.90
58983;DHT22;44771;49.982;8.560;2023-01-20T02:52:55;-4.50;99.90
58983;DHT22;44771;49.982;8.560;2023-01-20T02:58:01;-4.40;99.90
58983;DHT22;44771;49.982;8.560;2023-01-20T03:08:53;-4.30;99.90
58983;DHT22;44771;49.982;8.560;2023-01-20T03:14:00;-4.20;99.90
58983;DHT22;44771;49.982;8.560;2023-01-20T03:19:04;-4.20;99.90
58983;DHT22;44771;49.982;8.560;2023-01-20T03:24:07;-4.10;99.90
58983;DHT22;44771;49.982;8.560;2023-01-20T03:29:10;-4.10;99.90
58983;DHT22;44771;49.982;8.560;2023-01-20T03:34:16;-4.20;99.90
58983;DHT22;44771;49.982;8.560;2023-01-20T03:39:20;-4.20;99.90
58983;DHT22;44771;49.982;8.560;2023-01-20T03:44:34;-4.20;99.90
58983;DHT22;44771;49.982;8.560;2023-01-20T03:49:45;-4.30;99.90
58983;DHT22;44771;49.982;8.560;2023-01-20T03:54:56;-4.20;99.90
58983;DHT22;44771;49.982;8.560;2023-01-20T04:00:02;-3.80;99.90
58983;DHT22;44771;49.982;8.560;2023-01-20T04:05:06;-3.70;99.90
58983;DHT22;44771;49.982;8.560;2023-01-20T04:10:11;-3.70;99.90
58983;DHT22;44771;49.982;8.560;2023-01-20T04:15:15;-3.70;99.90
58983;DHT22;44771;49.982;8.560;2023-01-20T04:31:14;-3.50;99.90
58983;DHT22;44771;49.982;8.560;2023-01-20T04:36:30;-3.40;99.90
58983;DHT22;44771;49.982;8.560;2023-01-20T04:46:55;-3.30;99.90
58983;DHT22;44771;49.982;8.560;2023-01-20T04:57:46;-3.20;99.90
58983;DHT22;44771;49.982;8.560;2023-01-20T05:02:49;-3.10;99.90
58983;DHT22;44771;49.982;8.560;2023-01-20T05:19:29;-3.10;99.90
58983;DHT22;44771;49.982;8.560;2023-01-20T05:24:31;-3.10;99.90
58983;DHT22;44771;49.982;8.560;2023-01-20T05:29:33;-3.00;99.90
58983;DHT22;44771;49.982;8.560;2023-01-20T05:34:36;-2.80;99.90
58983;DHT22;44771;49.982;8.560;2023-01-20T05:39:38;-2.80;99.90
58983;DHT22;44771;49.982;8.560;2023-01-20T05:44:42;-2.70;99.90
58983;DHT22;44771;49.982;8.560;2023-01-20T05:49:45;-2.70;99.90
58983;DHT22;44771;49.982;8.560;2023-01-20T05:54:47;-2.60;99.90
58983;DHT22;44771;49.982;8.560;2023-01-20T05:59:49;-2.70;99.90
58983;DHT22;44771;49.982;8.560;2023-01-20T06:04:52;-2.80;99.90
58983;DHT22;44771;49.982;8.560;2023-01-20T06:09:54;-2.80;99.90
58983;DHT22;44771;49.982;8.560;2023-01-20T06:14:56;-2.60;99.90
58983;DHT22;44771;49.982;8.560;2023-01-20T06:19:59;-2.60;99.90
58983;DHT22;44771;49.982;8.560;2023-01-20T06:25:01;-2.60;99.90
58983;DHT22;44771;49.982;8.560;2023-01-20T06:35:31;-2.70;99.90
58983;DHT22;44771;49.982;8.560;2023-01-20T06:40:33;-2.70;99.90
58983;DHT22;44771;49.982;8.560;2023-01-20T06:45:35;-2.70;99.90
58983;DHT22;44771;49.982;8.560;2023-01-20T06:50:38;-2.70;99.90
58983;DHT22;44771;49.982;8.560;2023-01-20T06:55:40;-2.70;99.90
58983;DHT22;44771;49.982;8.560;2023-01-20T07:00:42;-2.60;99.90
58983;DHT22;44771;49.982;8.560;2023-01-20T07:05:51;-2.60;99.90
58983;DHT22;44771;49.982;8.560;2023-01-20T07:10:54;-2.60;99.90
58983;DHT22;44771;49.982;8.560;2023-01-20T07:15:56;-2.60;99.90
58983;DHT22;44771;49.982;8.560;2023-01-20T07:21:00;-2.60;99.90
58983;DHT22;44771;49.982;8.560;2023-01-20T07:26:04;-2.60;99.90
58983;DHT22;44771;49.982;8.560;2023-01-20T07:31:37;-2.70;99.90
58983;DHT22;44771;49.982;8.560;2023-01-20T07:36:44;-2.60;99.90
58983;DHT22;44771;49.982;8.560;2023-01-20T07:41:48;-2.60;99.90
58983;DHT22;44771;49.982;8.560;2023-01-20T07:46:50;-2.40;99.90
58983;DHT22;44771;49.982;8.560;2023-01-20T07:51:53;-2.10;99.90
58983;DHT22;44771;49.982;8.560;2023-01-20T07:56:55;-2.10;99.90
58983;DHT22;44771;49.982;8.560;2023-01-20T08:01:58;-2.20;99.90
58983;DHT22;44771;49.982;8.560;2023-01-20T08:07:02;-2.10;99.90
58983;DHT22;44771;49.982;8.560;2023-01-20T08:12:07;-2.10;99.90
58983;DHT22;44771;49.982;8.560;2023-01-20T08:17:08;-1.80;99.90
58983;DHT22;44771;49.982;8.560;2023-01-20T08:22:12;-1.80;99.90
58983;DHT22;44771;49.982;8.560;2023-01-20T08:27:16;-1.80;99.90
58983;DHT22;44771;49.982;8.560;2023-01-20T08:32:18;-1.80;99.90
58983;DHT22;44771;49.982;8.560;2023-01-20T08:37:21;-1.70;99.90
58983;DHT22;44771;49.982;8.560;2023-01-20T08:42:29;-1.60;99.90
58983;DHT22;44771;49.982;8.560;2023-01-20T08:47:41;-1.50;99.90
58983;DHT22;44771;49.982;8.560;2023-01-20T08:52:47;-1.50;99.90
58983;DHT22;44771;49.982;8.560;2023-01-20T08:57:49;-1.50;99.90
58983;DHT22;44771;49.982;8.560;2023-01-20T09:02:51;-1.50;99.90
58983;DHT22;44771;49.982;8.560;2023-01-20T09:07:57;-1.60;99.90
58983;DHT22;44771;49.982;8.560;2023-01-20T09:13:03;-1.60;99.90
58983;DHT22;44771;49.982;8.560;2023-01-20T09:18:13;-1.70;99.90
58983;DHT22;44771;49.982;8.560;2023-01-20T09:23:17;-1.70;99.90
58983;DHT22;44771;49.982;8.560;2023-01-20T09:28:19;-1.60;99.90
58983;DHT22;44771;49.982;8.560;2023-01-20T09:33:21;-1.50;99.90
58983;DHT22;44771;49.982;8.560;2023-01-20T09:38:26;-1.50;99.90
58983;DHT22;44771;49.982;8.560;2023-01-20T09:43:35;-1.30;99.90
58983;DHT22;44771;49.982;8.560;2023-01-20T09:48:46;-1.20;99.90
58983;DHT22;44771;49.982;8.560;2023-01-20T09:54:03;-1.20;99.90
58983;DHT22;44771;49.982;8.560;2023-01-20T09:59:11;-1.00;99.90
58983;DHT22;44771;49.982;8.560;2023-01-20T10:04:19;-0.90;99.90
58983;DHT22;44771;49.982;8.560;2023-01-20T10:09:31;-0.90;99.90
58983;DHT22;44771;49.982;8.560;2023-01-20T10:14:39;-0.90;99.90
58983;DHT22;44771;49.982;8.560;2023-01-20T10:19:49;-0.70;99.90
58983;DHT22;44771;49.982;8.560;2023-01-20T10:24:57;-0.50;99.90
58983;DHT22;44771;49.982;8.560;2023-01-20T10:30:06;-0.20;99.90
58983;DHT22;44771;49.982;8.560;2023-01-20T10:35:13;0.00;99.90
58983;DHT22;44771;49.982;8.560;2023-01-20T10:40:27;0.50;99.90
58983;DHT22;44771;49.982;8.560;2023-01-20T10:45:46;0.90;99.90
58983;DHT22;44771;49.982;8.560;2023-01-20T10:50:55;1.30;99.90
58983;DHT22;44771;49.982;8.560;2023-01-20T10:56:21;1.80;99.90
58983;DHT22;44771;49.982;8.560;2023-01-20T11:01:26;1.90;99.90
58983;DHT22;44771;49.982;8.560;2023-01-20T11:06:27;1.90;99.90
58983;DHT22;44771;49.982;8.560;2023-01-20T11:11:31;1.80;99.90
58983;DHT22;44771;49.982;8.560;2023-01-20T11:16:32;1.90;99.90
58983;DHT22;44771;49.982;8.560;2023-01-20T11:21:35;2.30;99.90
58983;DHT22;44771;49.982;8.560;2023-01-20T11:26:49;2.40;99.90
58983;DHT22;44771;49.982;8.560;2023-01-20T11:31:55;2.40;99.90
58983;DHT22;44771;49.982;8.560;2023-01-20T11:37:25;2.40;99.90
58983;DHT22;44771;49.982;8.560;2023-01-20T11:42:40;2.60;99.90
58983;DHT22;44771;49.982;8.560;2023-01-20T11:47:42;2.50;99.90
58983;DHT22;44771;49.982;8.560;2023-01-20T11:52:47;2.50;99.90
58983;DHT22;44771;49.982;8.560;2023-01-20T11:57:52;2.50;99.90
58983;DHT22;44771;49.982;8.560;2023-01-20T12:02:56;2.50;99.90
58983;DHT22;44771;49.982;8.560;2023-01-20T12:07:59;2.70;99.90
58983;DHT22;44771;49.982;8.560;2023-01-20T12:13:11;2.90;99.90
58983;DHT22;44771;49.982;8.560;2023-01-20T12:18:18;2.70;99.90
58983;DHT22;44771;49.982;8.560;2023-01-20T12:23:32;2.50;99.90
58983;DHT22;44771;49.982;8.560;2023-01-20T12:28:41;2.40;99.90
58983;DHT22;44771;49.982;8.560;2023-01-20T12:33:48;2.50;99.90
58983;DHT22;44771;49.982;8.560;2023-01-20T12:39:12;2.50;99.90
58983;DHT22;44771;49.982;8.560;2023-01-20T12:44:19;3.00;99.90
58983;DHT22;44771;49.982;8.560;2023-01-20T12:49:39;3.00;99.90
58983;DHT22;44771;49.982;8.560;2023-01-20T12:54:54;2.70;99.90
58983;DHT22;44771;49.982;8.560;2023-01-20T13:00:15;2.50;99.90
58983;DHT22;44771;49.982;8.560;2023-01-20T13:05:46;2.40;99.90
58983;DHT22;44771;49.982;8.560;2023-01-20T13:11:01;2.50;99.90
58983;DHT22;44771;49.982;8.560;2023-01-20T13:16:08;2.50;99.90
58983;DHT22;44771;49.982;8.560;2023-01-20T13:21:13;2.50;99.90
58983;DHT22;44771;49.982;8.560;2023-01-20T13:26:15;2.60;99.90
58983;DHT22;44771;49.982;8.560;2023-01-20T13:31:42;2.60;99.90
58983;DHT22;44771;49.982;8.560;2023-01-20T13:37:23;2.60;99.90
58983;DHT22;44771;49.982;8.560;2023-01-20T13:42:28;2.50;99.90
58983;DHT22;44771;49.982;8.560;2023-01-20T13:47:51;2.40;99.90
58983;DHT22;44771;49.982;8.560;2023-01-20T13:53:24;2.20;99.90
58983;DHT22;44771;49.982;8.560;2023-01-20T13:58:30;2.10;99.90
58983;DHT22;44771;49.982;8.560;2023-01-20T14:47:38;2.30;99.90
58983;DHT22;44771;49.982;8.560;2023-01-20T14:52:40;2.30;99.90
58983;DHT22;44771;49.982;8.560;2023-01-20T14:57:42;2.20;99.90
58983;DHT22;44771;49.982;8.560;2023-01-20T15:02:52;2.10;99.90
58983;DHT22;44771;49.982;8.560;2023-01-20T15:08:42;2.00;99.90
58983;DHT22;44771;49.982;8.560;2023-01-20T15:14:09;1.90;99.90
58983;DHT22;44771;49.982;8.560;2023-01-20T15:19:32;1.70;99.90
58983;DHT22;44771;49.982;8.560;2023-01-20T15:24:35;1.60;99.90
58983;DHT22;44771;49.982;8.560;2023-01-20T15:29:40;1.60;99.90
58983;DHT22;44771;49.982;8.560;2023-01-20T15:40:33;1.40;99.90
58983;DHT22;44771;49.982;8.560;2023-01-20T15:51:05;1.30;99.90
58983;DHT22;44771;49.982;8.560;2023-01-20T15:56:14;1.30;99.90
58983;DHT22;44771;49.982;8.560;2023-01-20T16:01:18;1.30;99.90
58983;DHT22;44771;49.982;8.560;2023-01-20T16:06:30;1.30;99.90
58983;DHT22;44771;49.982;8.560;2023-01-20T16:11:37;1.60;99.90
58983;DHT22;44771;49.982;8.560;2023-01-20T16:16:38;1.60;99.90
58983;DHT22;44771;49.982;8.560;2023-01-20T16:21:40;1.60;99.90
58983;DHT22;44771;49.982;8.560;2023-01-20T16:26:47;1.50;99.90
58983;DHT22;44771;49.982;8.560;2023-01-20T16:31:49;1.60;99.90
58983;DHT22;44771;49.982;8.560;2023-01-20T16:36:50;1.60;99.90
58983;DHT22;44771;49.982;8.560;2023-01-20T16:41:54;1.70;99.90
58983;DHT22;44771;49.982;8.560;2023-01-20T16:46:55;1.70;99.90
58983;DHT22;44771;49.982;8.560;2023-01-20T16:51:57;1.40;99.90
58983;DHT22;44771;49.982;8.560;2023-01-20T16:57:01;1.10;99.90
58983;DHT22;44771;49.982;8.560;2023-01-20T17:02:02;1.10;99.90
58983;DHT22;44771;49.982;8.560;2023-01-20T17:07:26;1.40;99.90
58983;DHT22;44771;49.982;8.560;2023-01-20T17:12:36;1.50;99.90
58983;DHT22;44771;49.982;8.560;2023-01-20T17:17:41;1.20;99.90
58983;DHT22;44771;49.982;8.560;2023-01-20T17:23:00;1.30;99.90
58983;DHT22;44771;49.982;8.560;2023-01-20T17:33:52;1.00;99.90
58983;DHT22;44771;49.982;8.560;2023-01-20T17:38:53;0.80;99.90
58983;DHT22;44771;49.982;8.560;2023-01-20T17:43:55;0.60;99.90
58983;DHT22;44771;49.982;8.560;2023-01-20T17:48:59;0.50;99.90
58983;DHT22;44771;49.982;8.560;2023-01-20T17:59:19;0.20;99.90
58983;DHT22;44771;49.982;8.560;2023-01-20T18:04:22;0.00;99.90
58983;DHT22;44771;49.982;8.560;2023-01-20T18:09:24;-0.10;99.90
58983;DHT22;44771;49.982;8.560;2023-01-20T18:14:26;-0.20;99.90
58983;DHT22;44771;49.982;8.560;2023-01-20T18:19:29;-0.20;99.90
58983;DHT22;44771;49.982;8.560;2023-01-20T18:24:34;0.00;99.90
58983;DHT22;44771;49.982;8.560;2023-01-20T18:30:17;-0.20;99.90
58983;DHT22;44771;49.982;8.560;2023-01-20T18:35:29;-0.20;99.90
58983;DHT22;44771;49.982;8.560;2023-01-20T22:10:14;0.10;99.90
58983;DHT22;44771;49.982;8.560;2023-01-20T22:15:16;0.10;99.90
58983;DHT22;44771;49.982;8.560;2023-01-20T22:20:23;0.10;99.90
58983;DHT22;44771;49.982;8.560;2023-01-20T22:25:26;0.10;99.90
58983;DHT22;44771;49.982;8.560;2023-01-20T22:30:28;0.10;99.90
58983;DHT22;44771;49.982;8.560;2023-01-20T22:35:30;0.10;99.90
58983;DHT22;44771;49.982;8.560;2023-01-20T22:40:35;0.10;99.90
58983;DHT22;44771;49.982;8.560;2023-01-20T22:45:37;0.00;99.90
58983;DHT22;44771;49.982;8.560;2023-01-20T22:50:39;0.00;99.90
58983;DHT22;44771;49.982;8.560;2023-01-20T22:55:42;0.00;99.90
58983;DHT22;44771;49.982;8.560;2023-01-20T23:01:00;-0.10;99.90
58983;DHT22;44771;49.982;8.560;2023-01-20T23:06:08;-0.10;99.90
58983;DHT22;44771;49.982;8.560;2023-01-20T23:23:10;-0.10;99.90
